Weather History for Cape Cod CGAS, MA

Change the Weather History Date:

Thursday, October 6, 2011

  Actual Average Record
Temperature  
Mean Temperature 50 °F -  
Max Temperature 60 °F 61 °F 77 °F (1997)
Min Temperature 39 °F 44 °F 32 °F (2004)
Degree Days  
Heating Degree Days 16    
Moisture  
Dew Point 29 °F    
Average Humidity 51    
Maximum Humidity 81    
Minimum Humidity 23    
Precipitation  
Precipitation 0.00 in - - ()
Sea Level Pressure  
Sea Level Pressure 30.24 in    
Wind  
Wind Speed 9 mph (NW)    
Max Wind Speed 15 mph    
Max Gust Speed 24 mph    
Visibility 10 miles    
Events      
Averages and records for this station are not official NWS values.
T = Trace of Precipitation, MM = Missing Value Source: NWS Daily Summary

Daily Weather History Graph

Daily Weather History Graph

Search for Another Location

Airport:

Trip Planner

Search our weather history database for the weather conditions in past years. The results will help you decide how hot, cold, wet, or windy it might be!

Date:

Astronomy

Oct. 06, 2011 Rise Set
Actual Time 6:43 AM EDT 6:15 PM EDT
Civil Twilight 6:16 AM EDT 6:43 PM EDT
Nautical Twilight 5:44 AM EDT 7:15 PM EDT
Astronomical Twilight 5:11 AM EDT 7:48 PM EDT
Moon 3:31 PM EDT (10/6) 1:25 AM EDT (10/6)
Length of Visible Light 12h 27m
Length of Day
11h 31m
Waxing Gibbous, 75% of the Moon is Illuminated
Oct 6
Waxing Gibbous
Oct 11
Full
Oct 19
Last Quarter
Oct 26
New
Nov 2
First Quarter

Hourly Weather History & Observations

Time (EDT) Temp. Windchill Dew Point Humidity Pressure Visibility Wind Dir Wind Speed Gust Speed Precip Events Conditions
12:15 AM 44.6 °F 40.7 °F 32.0 °F 61% 30.22 in 10.0 mi NW 6.9 mph - N/A   Mostly Cloudy
12:35 AM 44.6 °F 40.2 °F 32.0 °F 61% 30.23 in 10.0 mi NW 8.1 mph - N/A   Partly Cloudy
12:55 AM 42.8 °F 38.6 °F 33.8 °F 70% 30.23 in 10.0 mi NW 6.9 mph - N/A   Clear
1:15 AM 41.0 °F 36.4 °F 33.8 °F 76% 30.23 in 10.0 mi NW 6.9 mph - N/A   Clear
1:35 AM 41.0 °F 37.1 °F 33.8 °F 76% 30.23 in 10.0 mi NW 5.8 mph - N/A   Clear
1:55 AM 41.0 °F 37.1 °F 33.8 °F 76% 30.23 in 10.0 mi NW 5.8 mph - N/A   Clear
2:15 AM 41.0 °F 36.4 °F 33.8 °F 76% 30.23 in 10.0 mi NW 6.9 mph - N/A   Clear
2:35 AM 41.0 °F 36.4 °F 33.8 °F 76% 30.23 in 10.0 mi NW 6.9 mph - N/A   Clear
2:55 AM 41.0 °F 36.4 °F 33.8 °F 76% 30.23 in 10.0 mi NW 6.9 mph - N/A   Clear
3:15 AM 41.0 °F 35.8 °F 33.8 °F 76% 30.23 in 10.0 mi NW 8.1 mph - N/A   Clear
3:35 AM 41.0 °F 35.8 °F 33.8 °F 76% 30.23 in 10.0 mi NW 8.1 mph - N/A   Clear
3:55 AM 41.0 °F 36.4 °F 32.0 °F 70% 30.23 in 10.0 mi NW 6.9 mph - N/A   Clear
4:15 AM 41.0 °F 36.4 °F 32.0 °F 70% 30.23 in 10.0 mi NW 6.9 mph - N/A   Clear
4:35 AM 39.2 °F 34.2 °F 33.8 °F 81% 30.23 in 10.0 mi NW 6.9 mph - N/A   Clear
4:55 AM 41.0 °F 36.4 °F 33.8 °F 76% 30.24 in 10.0 mi NW 6.9 mph - N/A   Clear
5:15 AM 41.0 °F 35.2 °F 33.8 °F 76% 30.23 in 10.0 mi NW 9.2 mph - N/A   Clear
5:35 AM 42.8 °F 39.3 °F 32.0 °F 66% 30.24 in 10.0 mi NW 5.8 mph - N/A   Clear
5:55 AM 41.0 °F 36.4 °F 33.8 °F 76% 30.24 in 10.0 mi NW 6.9 mph - N/A   Clear
6:15 AM 41.0 °F 35.8 °F 32.0 °F 70% 30.24 in 10.0 mi NW 8.1 mph - N/A   Clear
6:35 AM 41.0 °F 36.4 °F 32.0 °F 70% 30.24 in 10.0 mi NW 6.9 mph - N/A   Clear
6:55 AM 42.8 °F 38.0 °F 32.0 °F 66% 30.24 in 10.0 mi NW 8.1 mph - N/A   Clear
7:15 AM 44.6 °F 39.7 °F 32.0 °F 61% 30.25 in 10.0 mi NW 9.2 mph - N/A   Clear
7:35 AM 44.6 °F 39.7 °F 32.0 °F 61% 30.25 in 10.0 mi NW 9.2 mph - N/A   Clear
7:55 AM 46.4 °F 41.5 °F 32.0 °F 57% 30.26 in 10.0 mi NW 10.4 mph - N/A   Clear
8:15 AM 46.4 °F 41.1 °F 32.0 °F 57% 30.26 in 10.0 mi NW 11.5 mph - N/A   Clear
8:35 AM 48.2 °F - 28.4 °F 46% 30.26 in 10.0 mi NW 11.5 mph 20.7 mph N/A   Clear
8:55 AM 48.2 °F - 28.4 °F 46% 30.26 in 10.0 mi NW 12.7 mph 19.6 mph N/A   Clear
9:15 AM 50.0 °F - 28.4 °F 43% 30.27 in 10.0 mi NW 15.0 mph 24.2 mph N/A   Clear
9:35 AM 48.2 °F - 28.4 °F 46% 30.27 in 10.0 mi NNW 12.7 mph 20.7 mph N/A   Clear
9:55 AM 50.0 °F - 28.4 °F 43% 30.27 in 10.0 mi NNW 12.7 mph 21.9 mph N/A   Clear
10:15 AM 51.8 °F - 28.4 °F 41% 30.27 in 10.0 mi NNW 13.8 mph 20.7 mph N/A   Clear
10:35 AM 53.6 °F - 28.4 °F 38% 30.27 in 10.0 mi NNW 10.4 mph 21.9 mph N/A   Clear
10:55 AM 53.6 °F - 26.6 °F 35% 30.26 in 10.0 mi NNW 13.8 mph 24.2 mph N/A   Clear
11:15 AM 55.4 °F - 26.6 °F 33% 30.26 in 10.0 mi NNW 13.8 mph 23.0 mph N/A   Clear
11:35 AM 55.4 °F - 26.6 °F 33% 30.26 in 10.0 mi NNW 11.5 mph 19.6 mph N/A   Clear
11:55 AM 55.4 °F - 24.8 °F 31% 30.25 in 10.0 mi North 12.7 mph 19.6 mph N/A   Clear
12:15 PM 55.4 °F - 23.0 °F 29% 30.26 in 10.0 mi NNW 11.5 mph 21.9 mph N/A   Clear
12:35 PM 57.2 °F - 24.8 °F 29% 30.25 in 10.0 mi NNW 10.4 mph 17.3 mph N/A   Clear
12:55 PM 57.2 °F - 26.6 °F 31% 30.24 in 10.0 mi NNW 11.5 mph 18.4 mph N/A   Clear
1:15 PM 57.2 °F - 23.0 °F 27% 30.23 in 10.0 mi North 12.7 mph 21.9 mph N/A   Clear
1:35 PM 59.0 °F - 23.0 °F 25% 30.23 in 10.0 mi NNW 13.8 mph 21.9 mph N/A   Clear
1:55 PM 59.0 °F - 21.2 °F 23% 30.22 in 10.0 mi North 12.7 mph 23.0 mph N/A   Clear
2:15 PM 59.0 °F - 23.0 °F 25% 30.22 in 10.0 mi NNW 12.7 mph 20.7 mph N/A   Clear
2:35 PM 59.0 °F - 24.8 °F 27% 30.22 in 10.0 mi NW 13.8 mph 18.4 mph N/A   Clear
2:55 PM 59.0 °F - 26.6 °F 29% 30.21 in 10.0 mi NNW 12.7 mph 21.9 mph N/A   Clear
3:15 PM 59.0 °F - 26.6 °F 29% 30.21 in 10.0 mi NW 11.5 mph - N/A   Clear
3:35 PM 60.8 °F - 28.4 °F 29% 30.21 in 10.0 mi NW 9.2 mph 20.7 mph N/A   Clear
3:55 PM 59.0 °F - 24.8 °F 27% 30.21 in 10.0 mi NNW 11.5 mph 20.7 mph N/A   Clear
4:15 PM 59.0 °F - 26.6 °F 29% 30.22 in 10.0 mi NNW 8.1 mph - N/A   Clear
4:35 PM 59.0 °F - 24.8 °F 27% 30.22 in 10.0 mi NNW 12.7 mph 18.4 mph N/A   Clear
4:55 PM 59.0 °F - 26.6 °F 29% 30.22 in 10.0 mi NNW 6.9 mph - N/A   Clear
5:15 PM 59.0 °F - 28.4 °F 31% 30.23 in 10.0 mi NW 3.5 mph - N/A   Clear
5:35 PM 57.2 °F - 32.0 °F 38% 30.23 in 10.0 mi Calm Calm - N/A   Clear
5:55 PM 55.4 °F - 32.0 °F 41% 30.24 in 10.0 mi North 3.5 mph - N/A   Clear
6:15 PM 53.6 °F - 35.6 °F 51% 30.24 in 10.0 mi NW 4.6 mph - N/A   Clear
6:35 PM 48.2 °F - 37.4 °F 66% 30.25 in 10.0 mi East 3.5 mph - N/A   Clear
6:55 PM 46.4 °F 45.2 °F 37.4 °F 71% 30.26 in 10.0 mi NNW 3.5 mph - N/A   Clear
7:15 PM 44.6 °F 40.7 °F 37.4 °F 76% 30.26 in 10.0 mi NW 6.9 mph - N/A   Clear
7:35 PM 44.6 °F 43.1 °F 37.4 °F 76% 30.27 in 10.0 mi ESE 3.5 mph - N/A   Clear
7:55 PM 44.6 °F 41.4 °F 37.4 °F 76% 30.28 in 10.0 mi NW 5.8 mph - N/A   Clear
8:15 PM 46.4 °F 43.5 °F 37.4 °F 71% 30.28 in 10.0 mi North 5.8 mph - N/A   Clear
8:35 PM 46.4 °F 45.2 °F 37.4 °F 71% 30.29 in 10.0 mi North 3.5 mph - N/A   Clear
8:55 PM 46.4 °F 44.3 °F 35.6 °F 66% 30.29 in 10.0 mi North 4.6 mph - N/A   Clear
9:15 PM 41.0 °F - 35.6 °F 81% 30.30 in 10.0 mi Calm Calm - N/A   Clear
9:35 PM 41.0 °F 38.0 °F 35.6 °F 81% 30.31 in 10.0 mi NNW 4.6 mph - N/A   Clear
9:55 PM 41.0 °F 38.0 °F 33.8 °F 76% 30.31 in 10.0 mi North 4.6 mph - N/A   Clear
10:15 PM 44.6 °F 43.1 °F 32.0 °F 61% 30.32 in 10.0 mi NW 3.5 mph - N/A   Clear
10:35 PM 41.0 °F 39.0 °F 32.0 °F 70% 30.32 in 10.0 mi NNW 3.5 mph - N/A   Clear
10:55 PM 42.8 °F 38.6 °F 32.0 °F 66% 30.32 in 10.0 mi NNW 6.9 mph - N/A   Clear
11:15 PM 44.6 °F 41.4 °F 32.0 °F 61% 30.33 in 10.0 mi North 5.8 mph - N/A   Clear
11:35 PM 44.6 °F 42.2 °F 32.0 °F 61% 30.33 in 10.0 mi North 4.6 mph - N/A   Clear
11:55 PM 41.0 °F 39.0 °F 33.8 °F 76% 30.33 in 10.0 mi NW 3.5 mph - N/A   Clear